createdAt,value
2018-10-18T00:01:06.300Z,100418.00
2018-10-18T00:03:34.205Z,100425.00
2018-10-18T00:06:01.684Z,100431.00
2018-10-18T00:08:29.144Z,100433.00
2018-10-18T00:10:56.644Z,100423.00
2018-10-18T00:13:24.138Z,100426.00
2018-10-18T00:15:51.636Z,100422.00
2018-10-18T00:18:19.131Z,100414.00
2018-10-18T00:20:46.642Z,100420.00
2018-10-18T00:23:14.141Z,100419.00
2018-10-18T00:25:41.631Z,100414.00
2018-10-18T00:28:09.118Z,100417.00
2018-10-18T00:30:36.615Z,100410.00
2018-10-18T00:33:04.438Z,100419.00
2018-10-18T00:35:31.930Z,100415.00
2018-10-18T00:37:59.471Z,100419.00
2018-10-18T00:40:26.914Z,100424.00
2018-10-18T00:42:54.414Z,100420.00
2018-10-18T00:45:21.956Z,100425.00
2018-10-18T00:47:49.490Z,100414.00
2018-10-18T00:50:17.042Z,100418.00
2018-10-18T00:52:44.534Z,100409.00
2018-10-18T00:55:12.063Z,100406.00
2018-10-18T00:57:40.418Z,100406.00
2018-10-18T01:00:08.846Z,100406.00
2018-10-18T01:02:36.349Z,100399.00
2018-10-18T01:05:03.892Z,100399.00
2018-10-18T01:07:31.447Z,100409.00
2018-10-18T01:09:58.950Z,100398.00
2018-10-18T01:12:26.615Z,100398.00
2018-10-18T01:14:54.012Z,100405.00
2018-10-18T01:17:21.547Z,100389.00
2018-10-18T01:19:49.054Z,100401.00
2018-10-18T01:22:16.576Z,100386.00
2018-10-18T01:24:44.096Z,100402.00
2018-10-18T01:27:11.608Z,100394.00
2018-10-18T01:29:39.170Z,100390.00
2018-10-18T01:32:06.735Z,100399.00
2018-10-18T01:34:34.199Z,100400.00
2018-10-18T01:37:01.734Z,100398.00
2018-10-18T01:39:29.259Z,100398.00
2018-10-18T01:41:56.816Z,100397.00
2018-10-18T01:44:24.323Z,100393.00
2018-10-18T01:46:51.887Z,100396.00
2018-10-18T01:49:19.383Z,100400.00
2018-10-18T01:51:46.915Z,100392.00
2018-10-18T01:54:14.492Z,100389.00
2018-10-18T01:56:41.947Z,100393.00
2018-10-18T01:59:09.442Z,100392.00
2018-10-18T02:01:36.973Z,100401.00
2018-10-18T02:04:05.186Z,100391.00
2018-10-18T02:06:32.724Z,100396.00
2018-10-18T02:09:00.255Z,100400.00
2018-10-18T02:11:27.765Z,100403.00
2018-10-18T02:13:55.285Z,100402.00
2018-10-18T02:16:22.786Z,100407.00
2018-10-18T02:18:50.315Z,100412.00
2018-10-18T02:21:17.810Z,100402.00
2018-10-18T02:23:45.322Z,100407.00
2018-10-18T02:26:12.813Z,100397.00
2018-10-18T02:28:40.330Z,100395.00
2018-10-18T02:31:07.823Z,100401.00
2018-10-18T02:33:35.338Z,100398.00
2018-10-18T02:36:02.940Z,100402.00
2018-10-18T02:38:30.456Z,100399.00
2018-10-18T02:40:57.962Z,100397.00
2018-10-18T02:43:25.478Z,100394.00
2018-10-18T02:45:52.975Z,100400.00
2018-10-18T02:48:20.626Z,100390.00
2018-10-18T02:50:48.032Z,100391.00
2018-10-18T02:53:15.555Z,100390.00
2018-10-18T02:55:43.058Z,100392.00
2018-10-18T02:58:10.574Z,100385.00
2018-10-18T03:00:38.082Z,100377.00
2018-10-18T03:03:05.598Z,100401.00
2018-10-18T03:05:33.116Z,100389.00
2018-10-18T03:08:00.847Z,100396.00
2018-10-18T03:10:28.367Z,100395.00
2018-10-18T03:12:55.869Z,100391.00
2018-10-18T03:15:23.391Z,100397.00
2018-10-18T03:17:50.914Z,100392.00
2018-10-18T03:20:18.425Z,100394.00
2018-10-18T03:22:45.934Z,100391.00
2018-10-18T03:25:13.437Z,100396.00
2018-10-18T03:27:41.349Z,100398.00
2018-10-18T03:30:09.176Z,100400.00
2018-10-18T03:32:36.569Z,100399.00
2018-10-18T03:35:05.336Z,100396.00
2018-10-18T03:37:32.870Z,100392.00
2018-10-18T03:40:00.387Z,100396.00
2018-10-18T03:42:27.904Z,100395.00
2018-10-18T03:44:55.410Z,100402.00
2018-10-18T03:47:22.987Z,100406.00
2018-10-18T03:49:50.487Z,100400.00
2018-10-18T03:52:17.978Z,100406.00
2018-10-18T03:54:45.477Z,100394.00
2018-10-18T03:57:12.958Z,100412.00
2018-10-18T03:59:40.580Z,100416.00
2018-10-18T04:02:07.942Z,100412.00
2018-10-18T04:04:35.435Z,100407.00
2018-10-18T04:07:02.964Z,100417.00
2018-10-18T04:09:30.464Z,100415.00
2018-10-18T04:11:57.989Z,100407.00
2018-10-18T04:14:25.906Z,100412.00
2018-10-18T04:16:53.410Z,100410.00
2018-10-18T04:19:20.901Z,100418.00
2018-10-18T04:21:48.394Z,100424.00
2018-10-18T04:24:15.971Z,100412.00
2018-10-18T04:26:43.386Z,100423.00
2018-10-18T04:29:10.887Z,100422.00
2018-10-18T04:31:38.407Z,100430.00
2018-10-18T04:34:05.907Z,100420.00
2018-10-18T04:36:33.403Z,100424.00
2018-10-18T04:39:00.897Z,100417.00
2018-10-18T04:41:28.686Z,100419.00
2018-10-18T04:43:56.189Z,100424.00
2018-10-18T04:46:23.722Z,100424.00
2018-10-18T04:48:51.256Z,100427.00
2018-10-18T04:51:18.727Z,100419.00
2018-10-18T04:53:46.214Z,100418.00
2018-10-18T04:56:13.718Z,100418.00
2018-10-18T04:58:41.215Z,100426.00
2018-10-18T05:01:08.818Z,100419.00
2018-10-18T05:03:36.218Z,100422.00
2018-10-18T05:06:04.719Z,100416.00
2018-10-18T05:08:32.237Z,100429.00
2018-10-18T05:10:59.742Z,100430.00
2018-10-18T05:13:27.246Z,100434.00
2018-10-18T05:15:54.739Z,100426.00
2018-10-18T05:18:22.574Z,100439.00
2018-10-18T05:20:50.066Z,100440.00
2018-10-18T05:23:17.575Z,100447.00
2018-10-18T05:25:45.811Z,100434.00
2018-10-18T05:28:13.326Z,100443.00
2018-10-18T05:30:40.815Z,100441.00
2018-10-18T05:33:08.328Z,100447.00
2018-10-18T05:35:35.840Z,100443.00
2018-10-18T05:38:03.429Z,100447.00
2018-10-18T05:40:30.930Z,100450.00
2018-10-18T05:43:03.969Z,100452.00
2018-10-18T05:45:31.500Z,100455.00
2018-10-18T05:47:59.027Z,100447.00
2018-10-18T05:50:26.559Z,100463.00
2018-10-18T05:52:54.074Z,100456.00
2018-10-18T05:55:21.585Z,100464.00
2018-10-18T05:57:49.078Z,100470.00
2018-10-18T06:00:17.670Z,100464.00
2018-10-18T06:02:45.433Z,100478.00
2018-10-18T06:05:14.956Z,100480.00
2018-10-18T06:07:43.123Z,100476.00
2018-10-18T06:10:28.296Z,100481.00
2018-10-18T06:12:55.870Z,100482.00
2018-10-18T06:15:23.648Z,100476.00
2018-10-18T06:17:51.382Z,100484.00
2018-10-18T06:20:19.759Z,100485.00
2018-10-18T06:22:47.293Z,100490.00
2018-10-18T06:25:15.464Z,100482.00
2018-10-18T06:27:42.928Z,100490.00
2018-10-18T06:30:12.983Z,100496.00
2018-10-18T06:36:01.415Z,100495.00
2018-10-18T06:38:28.943Z,100498.00
2018-10-18T06:40:56.471Z,100493.00
2018-10-18T06:43:24.047Z,100501.00
2018-10-18T06:45:51.563Z,100492.00
2018-10-18T06:48:19.079Z,100499.00
2018-10-18T06:50:46.607Z,100502.00
2018-10-18T06:53:14.121Z,100499.00
2018-10-18T06:55:41.754Z,100517.00
2018-10-18T06:58:10.051Z,100515.00
2018-10-18T07:00:41.166Z,100518.00
2018-10-18T07:03:08.683Z,100526.00
2018-10-18T07:05:42.310Z,100518.00
2018-10-18T07:08:09.815Z,100524.00
2018-10-18T07:10:54.431Z,100522.00
2018-10-18T07:13:21.942Z,100523.00
2018-10-18T07:15:49.467Z,100528.00
2018-10-18T07:18:17.124Z,100527.00
2018-10-18T07:20:44.495Z,100533.00
2018-10-18T07:23:12.007Z,100537.00
2018-10-18T07:25:46.287Z,100546.00
2018-10-18T07:28:13.806Z,100549.00
2018-10-18T07:30:41.314Z,100546.00
2018-10-18T07:33:08.822Z,100539.00
2018-10-18T07:35:36.351Z,100536.00
2018-10-18T07:38:03.886Z,100542.00
2018-10-18T07:40:31.407Z,100540.00
2018-10-18T07:42:58.927Z,100551.00
2018-10-18T07:45:26.426Z,100550.00
2018-10-18T07:47:53.933Z,100548.00
2018-10-18T07:50:21.459Z,100548.00
2018-10-18T07:52:48.965Z,100549.00
2018-10-18T07:55:16.462Z,100557.00
2018-10-18T07:57:43.946Z,100572.00
2018-10-18T08:00:12.910Z,100565.00
2018-10-18T08:02:41.056Z,100570.00
2018-10-18T08:05:09.241Z,100568.00
2018-10-18T08:07:37.009Z,100575.00
2018-10-18T08:10:07.469Z,100565.00
2018-10-18T08:12:34.987Z,100575.00
2018-10-18T08:15:02.482Z,100574.00
2018-10-18T08:17:29.994Z,100579.00
2018-10-18T08:19:57.487Z,100581.00
2018-10-18T08:22:25.002Z,100575.00
2018-10-18T08:24:52.500Z,100575.00
2018-10-18T08:27:19.995Z,100571.00
2018-10-18T08:29:47.495Z,100576.00
2018-10-18T08:32:15.047Z,100566.00
2018-10-18T08:34:42.545Z,100579.00
2018-10-18T08:37:10.130Z,100578.00
2018-10-18T08:39:37.574Z,100566.00
2018-10-18T08:42:05.342Z,100570.00
2018-10-18T08:44:32.923Z,100573.00
2018-10-18T08:47:00.379Z,100572.00
2018-10-18T08:49:27.871Z,100565.00
2018-10-18T08:51:55.370Z,100568.00
2018-10-18T08:54:22.886Z,100562.00
2018-10-18T08:56:50.383Z,100561.00
2018-10-18T08:59:17.908Z,100562.00
2018-10-18T09:01:45.596Z,100566.00
2018-10-18T09:04:12.917Z,100571.00
2018-10-18T09:06:40.405Z,100567.00
2018-10-18T09:09:08.486Z,100569.00
2018-10-18T09:11:36.120Z,100560.00
2018-10-18T09:14:03.786Z,100562.00
2018-10-18T09:16:31.454Z,100551.00
2018-10-18T09:18:58.958Z,100551.00
2018-10-18T09:21:26.452Z,100551.00
2018-10-18T09:23:54.006Z,100556.00
2018-10-18T09:26:21.446Z,100553.00
2018-10-18T09:28:48.958Z,100561.00
2018-10-18T09:31:16.518Z,100561.00
2018-10-18T09:33:43.950Z,100559.00
2018-10-18T09:36:11.479Z,100569.00
2018-10-18T09:38:38.966Z,100562.00
2018-10-18T09:41:06.475Z,100561.00
2018-10-18T09:43:33.986Z,100554.00
2018-10-18T09:46:01.494Z,100557.00
2018-10-18T09:48:28.986Z,100557.00
2018-10-18T09:50:56.745Z,100554.00
2018-10-18T09:53:24.018Z,100560.00
2018-10-18T09:55:51.538Z,100547.00
2018-10-18T09:58:19.025Z,100559.00
2018-10-18T10:00:52.284Z,100554.00
2018-10-18T10:03:20.320Z,100552.00
2018-10-18T10:05:47.847Z,100545.00
2018-10-18T10:08:15.343Z,100552.00
2018-10-18T10:10:42.858Z,100550.00
2018-10-18T10:13:10.446Z,100545.00
2018-10-18T10:15:37.851Z,100558.00
2018-10-18T10:18:05.359Z,100549.00
2018-10-18T10:20:32.885Z,100545.00
2018-10-18T10:23:00.387Z,100546.00
2018-10-18T10:25:27.890Z,100545.00
2018-10-18T10:27:56.006Z,100557.00
2018-10-18T10:30:23.751Z,100548.00
2018-10-18T10:32:51.234Z,100547.00
2018-10-18T10:35:18.787Z,100555.00
2018-10-18T10:37:46.198Z,100547.00
2018-10-18T10:40:13.783Z,100548.00
2018-10-18T10:42:41.890Z,100551.00
2018-10-18T10:45:10.518Z,100543.00
2018-10-18T10:47:37.987Z,100537.00
2018-10-18T10:50:06.325Z,100535.00
2018-10-18T10:52:33.809Z,100525.00
2018-10-18T10:55:01.302Z,100526.00
2018-10-18T10:57:29.026Z,100529.00
2018-10-18T10:59:56.490Z,100535.00
2018-10-18T11:02:24.011Z,100536.00
2018-10-18T11:04:51.518Z,100536.00
2018-10-18T11:07:19.050Z,100538.00
2018-10-18T11:09:46.622Z,100539.00
2018-10-18T11:12:14.115Z,100532.00
2018-10-18T11:14:41.566Z,100536.00
2018-10-18T11:17:09.124Z,100528.00
2018-10-18T11:19:36.572Z,100532.00
2018-10-18T11:22:05.025Z,100533.00
2018-10-18T11:24:32.565Z,100539.00
2018-10-18T11:27:00.099Z,100533.00
2018-10-18T11:29:27.567Z,100530.00
2018-10-18T11:31:55.070Z,100530.00
2018-10-18T11:34:22.671Z,100538.00
2018-10-18T11:36:50.138Z,100534.00
2018-10-18T11:39:17.630Z,100542.00
2018-10-18T11:41:45.140Z,100537.00
2018-10-18T11:44:12.741Z,100544.00
2018-10-18T11:46:40.260Z,100536.00
2018-10-18T11:49:07.805Z,100535.00
2018-10-18T11:51:35.389Z,100536.00
2018-10-18T11:54:02.971Z,100533.00
2018-10-18T11:56:30.521Z,100533.00
2018-10-18T11:58:58.056Z,100529.00
2018-10-18T12:01:25.791Z,100528.00
2018-10-18T12:03:53.339Z,100535.00
2018-10-18T12:06:20.892Z,100528.00
2018-10-18T12:08:48.439Z,100530.00
2018-10-18T12:11:16.210Z,100530.00
2018-10-18T12:13:43.603Z,100535.00
2018-10-18T12:16:11.143Z,100530.00
2018-10-18T12:18:38.692Z,100530.00
2018-10-18T12:21:06.236Z,100526.00
2018-10-18T12:23:33.803Z,100543.00
2018-10-18T12:26:01.393Z,100532.00
2018-10-18T12:28:28.936Z,100533.00
2018-10-18T12:30:56.504Z,100535.00
2018-10-18T12:33:24.064Z,100537.00
2018-10-18T12:35:51.600Z,100544.00
2018-10-18T12:38:19.144Z,100544.00
2018-10-18T12:40:46.733Z,100544.00
2018-10-18T12:43:14.243Z,100546.00
2018-10-18T12:45:41.751Z,100549.00
2018-10-18T12:48:09.490Z,100551.00
2018-10-18T12:50:36.914Z,100551.00
2018-10-18T12:53:04.437Z,100550.00
2018-10-18T12:55:31.956Z,100551.00
2018-10-18T12:57:59.474Z,100557.00
2018-10-18T13:00:26.987Z,100547.00
2018-10-18T13:02:54.488Z,100558.00
2018-10-18T13:05:21.997Z,100556.00
2018-10-18T13:07:49.509Z,100557.00
2018-10-18T13:10:17.032Z,100554.00
2018-10-18T13:12:44.556Z,100550.00
2018-10-18T13:15:12.069Z,100550.00
2018-10-18T13:17:39.809Z,100555.00
2018-10-18T13:20:08.581Z,100546.00
2018-10-18T13:22:36.255Z,100547.00
2018-10-18T13:25:04.860Z,100551.00
2018-10-18T13:27:32.380Z,100554.00
2018-10-18T13:29:59.909Z,100552.00
2018-10-18T13:32:27.565Z,100562.00
2018-10-18T13:34:55.125Z,100557.00
2018-10-18T13:37:22.643Z,100555.00
2018-10-18T13:39:50.147Z,100553.00
2018-10-18T13:42:17.699Z,100554.00
2018-10-18T13:44:45.196Z,100552.00
2018-10-18T13:47:12.712Z,100549.00
2018-10-18T13:49:40.225Z,100558.00
2018-10-18T13:52:07.722Z,100562.00
2018-10-18T13:54:35.253Z,100564.00
2018-10-18T13:57:02.815Z,100563.00
2018-10-18T13:59:47.974Z,100568.00
2018-10-18T14:02:15.532Z,100572.00
2018-10-18T14:04:42.999Z,100565.00
2018-10-18T14:07:10.755Z,100572.00
2018-10-18T14:09:38.276Z,100582.00
2018-10-18T14:12:05.809Z,100579.00
2018-10-18T14:14:33.323Z,100577.00
2018-10-18T14:17:00.894Z,100577.00
2018-10-18T14:19:28.380Z,100586.00
2018-10-18T14:21:56.959Z,100576.00
2018-10-18T14:24:24.480Z,100586.00
2018-10-18T14:26:51.989Z,100587.00
2018-10-18T14:29:19.587Z,100593.00
2018-10-18T14:31:47.677Z,100581.00
2018-10-18T14:34:15.199Z,100577.00
2018-10-18T14:36:42.708Z,100581.00
2018-10-18T14:39:10.332Z,100578.00
2018-10-18T14:41:38.092Z,100583.00
2018-10-18T14:44:05.819Z,100595.00
2018-10-18T14:46:33.406Z,100588.00
2018-10-18T14:49:00.980Z,100589.00
2018-10-18T14:51:28.649Z,100580.00
2018-10-18T14:53:56.196Z,100576.00
2018-10-18T14:56:24.008Z,100574.00
2018-10-18T14:58:51.596Z,100583.00
2018-10-18T15:01:22.665Z,100588.00
2018-10-18T15:03:57.888Z,100577.00
2018-10-18T15:06:50.060Z,100583.00
2018-10-18T15:09:25.689Z,100582.00
2018-10-18T15:12:14.476Z,100593.00
2018-10-18T15:14:42.044Z,100580.00
2018-10-18T15:17:09.679Z,100590.00
2018-10-18T15:22:41.807Z,100604.00
2018-10-18T15:25:10.467Z,100602.00
2018-10-18T15:27:38.474Z,100611.00
2018-10-18T15:30:07.504Z,100616.00
2018-10-18T15:32:35.228Z,100626.00
2018-10-18T15:35:02.797Z,100633.00
2018-10-18T15:37:30.326Z,100634.00
2018-10-18T15:39:57.913Z,100640.00
2018-10-18T15:42:25.467Z,100640.00
2018-10-18T15:44:53.003Z,100641.00
2018-10-18T15:47:20.626Z,100636.00
2018-10-18T15:49:48.032Z,100650.00
2018-10-18T15:52:15.556Z,100654.00
2018-10-18T15:54:43.123Z,100658.00
2018-10-18T15:57:10.682Z,100660.00
2018-10-18T15:59:38.132Z,100650.00
2018-10-18T16:02:05.726Z,100667.00
2018-10-18T16:04:33.247Z,100658.00
2018-10-18T16:07:00.748Z,100655.00
2018-10-18T16:09:28.277Z,100660.00
2018-10-18T16:11:55.781Z,100670.00
2018-10-18T16:14:23.319Z,100674.00
2018-10-18T16:16:50.820Z,100675.00
2018-10-18T16:19:18.328Z,100680.00
2018-10-18T16:21:45.836Z,100677.00
2018-10-18T16:24:13.418Z,100683.00
2018-10-18T16:26:40.874Z,100683.00
2018-10-18T16:29:08.454Z,100683.00
2018-10-18T16:31:35.899Z,100683.00
2018-10-18T16:34:03.819Z,100689.00
2018-10-18T16:36:31.327Z,100689.00
2018-10-18T16:38:58.835Z,100689.00
2018-10-18T16:41:26.667Z,100692.00
2018-10-18T16:43:53.989Z,100693.00
2018-10-18T16:46:21.491Z,100702.00
2018-10-18T16:48:48.996Z,100698.00
2018-10-18T16:51:16.540Z,100705.00
2018-10-18T16:53:44.068Z,100712.00
2018-10-18T16:56:11.602Z,100714.00
2018-10-18T16:58:39.092Z,100709.00
2018-10-18T17:01:06.649Z,100720.00
2018-10-18T17:03:34.160Z,100719.00
2018-10-18T17:06:01.784Z,100717.00
2018-10-18T17:08:29.207Z,100728.00
2018-10-18T17:10:56.777Z,100725.00
2018-10-18T17:13:24.284Z,100729.00
2018-10-18T17:15:51.863Z,100734.00
2018-10-18T17:18:19.412Z,100726.00
2018-10-18T17:20:47.116Z,100719.00
2018-10-18T17:23:14.481Z,100731.00
2018-10-18T17:25:41.995Z,100721.00
2018-10-18T17:28:09.501Z,100725.00
2018-10-18T17:30:37.094Z,100726.00
2018-10-18T17:33:04.667Z,100726.00
2018-10-18T17:35:32.172Z,100728.00
2018-10-18T17:37:59.674Z,100731.00
2018-10-18T17:40:27.258Z,100728.00
2018-10-18T17:42:54.779Z,100733.00
2018-10-18T17:45:22.286Z,100738.00
2018-10-18T17:47:49.809Z,100742.00
2018-10-18T17:50:17.431Z,100742.00
2018-10-18T17:52:59.023Z,100741.00
2018-10-18T17:55:26.537Z,100737.00
2018-10-18T17:57:54.080Z,100739.00
2018-10-18T18:00:21.611Z,100739.00
2018-10-18T18:02:59.924Z,100745.00
2018-10-18T18:05:27.464Z,100740.00
2018-10-18T18:07:55.056Z,100751.00
2018-10-18T18:10:26.048Z,100739.00
2018-10-18T18:12:53.559Z,100745.00
2018-10-18T18:15:21.089Z,100740.00
2018-10-18T18:17:48.673Z,100751.00
2018-10-18T18:20:16.180Z,100741.00
2018-10-18T18:22:43.731Z,100756.00
2018-10-18T18:25:11.885Z,100748.00
2018-10-18T18:27:39.521Z,100744.00
2018-10-18T18:30:10.756Z,100749.00
2018-10-18T18:32:46.623Z,100751.00
2018-10-18T18:35:14.143Z,100746.00
2018-10-18T18:37:41.647Z,100754.00
2018-10-18T18:40:09.711Z,100759.00
2018-10-18T18:42:37.895Z,100765.00
2018-10-18T18:45:11.234Z,100765.00
2018-10-18T18:47:38.667Z,100770.00
2018-10-18T18:50:06.513Z,100761.00
2018-10-18T18:52:34.008Z,100770.00
2018-10-18T18:55:01.533Z,100764.00
2018-10-18T18:57:29.043Z,100777.00
2018-10-18T18:59:56.540Z,100781.00
2018-10-18T19:02:24.040Z,100785.00
2018-10-18T19:04:51.557Z,100782.00
2018-10-18T19:07:19.067Z,100773.00
2018-10-18T19:09:46.572Z,100777.00
2018-10-18T19:12:14.085Z,100782.00
2018-10-18T19:14:41.600Z,100785.00
2018-10-18T19:17:09.112Z,100787.00
2018-10-18T19:19:37.328Z,100786.00
2018-10-18T19:22:05.568Z,100792.00
2018-10-18T19:24:33.060Z,100794.00
2018-10-18T19:27:00.596Z,100799.00
2018-10-18T19:29:28.095Z,100799.00
2018-10-18T19:31:55.651Z,100793.00
2018-10-18T19:34:23.116Z,100797.00
2018-10-18T19:36:50.620Z,100801.00
2018-10-18T19:39:18.120Z,100791.00
2018-10-18T19:41:45.636Z,100797.00
2018-10-18T19:44:13.240Z,100798.00
2018-10-18T19:46:40.705Z,100801.00
2018-10-18T19:49:08.188Z,100801.00
2018-10-18T19:51:35.708Z,100818.00
2018-10-18T19:54:03.228Z,100819.00
2018-10-18T19:56:30.732Z,100808.00
2018-10-18T19:58:58.243Z,100812.00
2018-10-18T20:01:25.783Z,100814.00
2018-10-18T20:03:53.316Z,100811.00
2018-10-18T20:06:21.068Z,100814.00
2018-10-18T20:08:48.581Z,100822.00
2018-10-18T20:11:16.107Z,100824.00
2018-10-18T20:13:43.607Z,100829.00
2018-10-18T20:16:11.128Z,100830.00
2018-10-18T20:18:38.680Z,100828.00
2018-10-18T20:21:06.350Z,100827.00
2018-10-18T20:23:33.848Z,100830.00
2018-10-18T20:26:02.723Z,100829.00
2018-10-18T20:28:36.630Z,100828.00
2018-10-18T20:31:04.487Z,100830.00
2018-10-18T20:33:32.001Z,100827.00
2018-10-18T20:35:59.563Z,100819.00
2018-10-18T20:38:27.033Z,100822.00
2018-10-18T20:40:54.588Z,100827.00
2018-10-18T20:43:24.252Z,100820.00
2018-10-18T20:45:51.855Z,100824.00
2018-10-18T20:48:19.368Z,100819.00
2018-10-18T20:50:46.921Z,100826.00
2018-10-18T20:53:14.526Z,100819.00
2018-10-18T20:55:42.031Z,100825.00
2018-10-18T20:58:09.581Z,100835.00
2018-10-18T21:00:37.151Z,100831.00
2018-10-18T21:03:04.984Z,100829.00
2018-10-18T21:05:32.534Z,100825.00
2018-10-18T21:08:00.067Z,100825.00
2018-10-18T21:10:28.625Z,100822.00
2018-10-18T21:12:56.187Z,100825.00
2018-10-18T21:15:34.173Z,100826.00
2018-10-18T21:18:01.773Z,100827.00
2018-10-18T21:20:29.304Z,100832.00
2018-10-18T21:22:56.877Z,100828.00
2018-10-18T21:25:24.409Z,100825.00
2018-10-18T21:27:52.046Z,100823.00
2018-10-18T21:30:19.535Z,100822.00
2018-10-18T21:32:47.106Z,100825.00
2018-10-18T21:35:14.735Z,100820.00
2018-10-18T21:37:42.236Z,100825.00
2018-10-18T21:40:09.777Z,100822.00
2018-10-18T21:42:37.354Z,100815.00
2018-10-18T21:45:04.906Z,100810.00
2018-10-18T21:47:32.516Z,100818.00
2018-10-18T21:50:00.017Z,100818.00
2018-10-18T21:52:27.533Z,100815.00
2018-10-18T21:54:55.035Z,100826.00
2018-10-18T21:57:23.596Z,100820.00
2018-10-18T21:59:51.088Z,100823.00
2018-10-18T22:02:18.624Z,100821.00
2018-10-18T22:04:46.139Z,100820.00
2018-10-18T22:07:13.646Z,100828.00
2018-10-18T22:10:06.961Z,100823.00
2018-10-18T22:12:34.651Z,100831.00
2018-10-18T22:15:02.177Z,100829.00
2018-10-18T22:17:29.683Z,100826.00
2018-10-18T22:19:57.188Z,100829.00
2018-10-18T22:22:24.697Z,100830.00
2018-10-18T22:24:52.201Z,100836.00
2018-10-18T22:27:19.715Z,100834.00
2018-10-18T22:29:47.224Z,100825.00
2018-10-18T22:32:14.733Z,100821.00
2018-10-18T22:34:42.240Z,100828.00
2018-10-18T22:37:09.788Z,100828.00
2018-10-18T22:39:37.277Z,100832.00
2018-10-18T22:42:05.116Z,100836.00
2018-10-18T22:44:32.628Z,100831.00
2018-10-18T22:47:00.166Z,100826.00
2018-10-18T22:49:27.676Z,100830.00
2018-10-18T22:51:55.174Z,100827.00
2018-10-18T22:54:22.684Z,100834.00
2018-10-18T22:56:50.205Z,100820.00
2018-10-18T22:59:17.712Z,100828.00
2018-10-18T23:01:45.356Z,100820.00
2018-10-18T23:04:12.859Z,100821.00
2018-10-18T23:06:40.371Z,100821.00
2018-10-18T23:09:09.540Z,100826.00
2018-10-18T23:11:37.120Z,100822.00
2018-10-18T23:14:05.516Z,100827.00
2018-10-18T23:16:33.048Z,100820.00
2018-10-18T23:19:00.543Z,100825.00
2018-10-18T23:21:28.057Z,100822.00
2018-10-18T23:23:55.568Z,100815.00
2018-10-18T23:26:23.140Z,100820.00
2018-10-18T23:28:50.648Z,100819.00
2018-10-18T23:31:18.152Z,100811.00
2018-10-18T23:33:45.659Z,100816.00
2018-10-18T23:36:13.173Z,100819.00
2018-10-18T23:38:40.691Z,100815.00
2018-10-18T23:41:08.207Z,100815.00
2018-10-18T23:43:35.730Z,100806.00
2018-10-18T23:46:03.298Z,100813.00
2018-10-18T23:48:30.856Z,100805.00
2018-10-18T23:50:58.395Z,100802.00
2018-10-18T23:53:25.981Z,100806.00
2018-10-18T23:55:53.562Z,100804.00
2018-10-18T23:58:21.096Z,100796.00
